Time;durP1;ratioP1;P1;durP2;ratioP2;P2;SDS_P1;SDS_P2;PMS_P1;PMS_P2;Temp;Humidity;BMP_temperature;BMP_pressure;BME280_temperature;BME280_humidity;BME280_pressure;Samples;Min_cycle;Max_cycle;Signal;HPM_P1;HPM_P2
2022/07/10 00:01:18;;;;;;;8.32;2.00;;;13.10;99.90;;;;;;5059569;28;20074;-78
2022/07/10 00:03:44;;;;;;;7.32;2.22;;;13.10;99.90;;;;;;5071761;28;20181;-79
2022/07/10 00:06:10;;;;;;;9.13;2.47;;;13.10;99.90;;;;;;5054994;28;20039;-79
2022/07/10 00:08:36;;;;;;;5.95;1.90;;;13.00;99.90;;;;;;5052226;28;20494;-79
2022/07/10 00:11:02;;;;;;;12.68;2.45;;;13.00;99.90;;;;;;5040380;28;20039;-79
2022/07/10 00:13:28;;;;;;;8.63;2.40;;;12.90;99.90;;;;;;5056566;28;20043;-79
2022/07/10 00:15:53;;;;;;;6.57;2.15;;;12.90;99.90;;;;;;5068439;28;20582;-79
2022/07/10 00:18:19;;;;;;;9.10;2.83;;;12.90;99.90;;;;;;5084887;28;20135;-79
2022/07/10 00:20:45;;;;;;;5.95;1.95;;;12.90;99.90;;;;;;5059474;28;20050;-78
2022/07/10 00:23:11;;;;;;;8.57;2.72;;;12.80;99.90;;;;;;5056103;28;20097;-78
2022/07/10 00:25:37;;;;;;;7.65;2.28;;;12.80;99.90;;;;;;5096582;28;20274;-78
2022/07/10 00:28:04;;;;;;;9.93;2.60;;;12.70;99.90;;;;;;5060092;28;20052;-79
2022/07/10 00:30:30;;;;;;;6.65;2.10;;;12.70;99.90;;;;;;5067407;28;20086;-79
2022/07/10 00:32:55;;;;;;;6.32;1.98;;;12.70;99.90;;;;;;5055114;28;20059;-78
2022/07/10 00:35:21;;;;;;;7.68;2.25;;;12.70;99.90;;;;;;5062974;28;20481;-79
2022/07/10 00:37:47;;;;;;;7.80;2.70;;;12.60;99.90;;;;;;5067090;28;20036;-78
2022/07/10 00:40:12;;;;;;;12.10;2.60;;;12.60;99.90;;;;;;5069661;28;20036;-78
2022/07/10 00:42:38;;;;;;;7.15;2.10;;;12.50;99.90;;;;;;5068661;28;20058;-78
2022/07/10 00:45:05;;;;;;;6.90;2.10;;;12.50;99.90;;;;;;5049722;28;20536;-78
2022/07/10 00:47:30;;;;;;;10.13;2.08;;;12.50;99.90;;;;;;5085076;28;20425;-78
2022/07/10 00:49:56;;;;;;;11.18;2.28;;;12.40;99.90;;;;;;5080263;28;20032;-78
2022/07/10 00:52:22;;;;;;;12.60;2.63;;;12.40;99.90;;;;;;5065153;28;20097;-77
2022/07/10 00:54:52;;;;;;;7.43;2.00;;;12.40;99.90;;;;;;5059505;28;20032;-77
2022/07/10 00:57:18;;;;;;;6.57;2.45;;;12.30;99.90;;;;;;5081869;28;20670;-77
2022/07/10 00:59:45;;;;;;;7.32;1.98;;;12.20;99.90;;;;;;5092204;28;20047;-77
2022/07/10 01:02:12;;;;;;;10.50;2.28;;;12.20;99.90;;;;;;5066735;28;20040;-77
2022/07/10 01:04:38;;;;;;;8.40;2.33;;;12.10;99.90;;;;;;5064273;28;20040;-78
2022/07/10 01:07:04;;;;;;;8.30;2.35;;;12.10;99.90;;;;;;5040800;28;20058;-77
2022/07/10 01:09:31;;;;;;;7.97;2.70;;;12.10;99.90;;;;;;5085153;28;20047;-78
2022/07/10 01:12:00;;;;;;;9.48;2.40;;;12.10;99.90;;;;;;5086652;28;20085;-78
2022/07/10 01:14:26;;;;;;;3.88;2.05;;;12.10;99.90;;;;;;5072851;28;20046;-77
2022/07/10 01:16:53;;;;;;;7.47;2.40;;;12.10;99.90;;;;;;5065894;28;20513;-77
2022/07/10 01:19:19;;;;;;;10.93;2.40;;;12.00;99.90;;;;;;5053756;28;20468;-76
2022/07/10 01:21:45;;;;;;;9.93;2.60;;;12.10;99.90;;;;;;5064990;28;20539;-77
2022/07/10 01:24:11;;;;;;;6.22;1.90;;;12.00;99.90;;;;;;5052310;28;20032;-78
2022/07/10 01:26:38;;;;;;;6.18;2.30;;;12.00;99.90;;;;;;5083555;28;20052;-77
2022/07/10 01:29:08;;;;;;;6.63;2.72;;;12.00;99.90;;;;;;5063470;28;20044;-77
2022/07/10 01:31:34;;;;;;;6.38;2.28;;;12.00;99.90;;;;;;5063548;28;20100;-77
2022/07/10 01:34:04;;;;;;;9.15;2.30;;;12.00;99.90;;;;;;5091294;28;20736;-78
2022/07/10 01:36:30;;;;;;;8.43;2.20;;;12.00;99.90;;;;;;5088667;28;20028;-77
2022/07/10 01:38:57;;;;;;;8.95;2.47;;;12.00;99.90;;;;;;5074126;28;20071;-78
2022/07/10 01:41:23;;;;;;;6.80;2.30;;;12.00;99.90;;;;;;5074813;28;20078;-77
2022/07/10 01:43:50;;;;;;;7.15;2.60;;;12.10;99.90;;;;;;5081287;28;20047;-77
2022/07/10 01:46:16;;;;;;;11.65;2.65;;;12.10;99.90;;;;;;5075102;28;20042;-77
2022/07/10 01:48:43;;;;;;;6.75;2.45;;;12.20;99.90;;;;;;5088113;28;20071;-78
2022/07/10 01:51:10;;;;;;;5.38;2.08;;;12.20;99.90;;;;;;5079918;28;20291;-78
2022/07/10 01:53:41;;;;;;;9.32;2.38;;;12.20;99.90;;;;;;5093573;28;20522;-78
2022/07/10 01:56:09;;;;;;;8.73;2.75;;;12.30;99.90;;;;;;5092807;28;20092;-78
2022/07/10 01:58:35;;;;;;;11.25;2.50;;;12.30;99.90;;;;;;5080849;28;20038;-77
2022/07/10 02:01:02;;;;;;;12.45;2.50;;;12.20;99.90;;;;;;5092895;28;20035;-78
2022/07/10 02:06:12;;;;;;;9.18;2.60;;;12.20;99.90;;;;;;5095393;28;20040;-78
2022/07/10 02:08:38;;;;;;;8.15;2.38;;;12.20;99.90;;;;;;5069711;28;20036;-78
2022/07/10 02:11:04;;;;;;;9.48;2.45;;;12.20;99.90;;;;;;5076156;28;20171;-78
2022/07/10 02:13:29;;;;;;;9.45;2.13;;;12.20;99.90;;;;;;5096577;28;20400;-78
2022/07/10 02:15:55;;;;;;;5.65;1.90;;;12.20;99.90;;;;;;5085927;28;20544;-77
2022/07/10 02:18:22;;;;;;;8.45;2.60;;;12.20;99.90;;;;;;5082945;28;20458;-78
2022/07/10 02:20:48;;;;;;;9.80;2.75;;;12.20;99.90;;;;;;5079216;28;20039;-77
2022/07/10 02:23:13;;;;;;;7.65;2.47;;;12.10;99.90;;;;;;5092847;28;20126;-77
2022/07/10 02:25:39;;;;;;;7.38;2.30;;;12.10;99.90;;;;;;5062035;28;20040;-78
2022/07/10 02:28:05;;;;;;;7.20;3.13;;;12.10;99.90;;;;;;5102059;28;20063;-78
2022/07/10 02:30:31;;;;;;;14.10;2.30;;;12.10;99.90;;;;;;5065113;28;20044;-77
2022/07/10 02:32:57;;;;;;;5.85;2.47;;;12.10;99.90;;;;;;5080035;28;20582;-78
2022/07/10 02:35:23;;;;;;;9.43;2.90;;;12.10;99.90;;;;;;5087457;28;20152;-78
2022/07/10 02:37:48;;;;;;;6.65;2.10;;;12.10;99.90;;;;;;5074315;28;20035;-78
2022/07/10 02:40:14;;;;;;;5.75;2.08;;;12.10;99.90;;;;;;5050459;28;20024;-78
2022/07/10 02:42:40;;;;;;;10.75;2.60;;;12.10;99.90;;;;;;5074291;28;20082;-78
2022/07/10 02:45:07;;;;;;;7.97;2.78;;;12.10;99.90;;;;;;5070152;28;20038;-78
2022/07/10 02:47:33;;;;;;;6.65;2.40;;;12.00;99.90;;;;;;5072270;28;20500;-78
2022/07/10 02:49:59;;;;;;;12.98;2.80;;;12.00;99.90;;;;;;5068293;28;20517;-77
2022/07/10 02:52:25;;;;;;;9.75;2.70;;;12.00;99.90;;;;;;5059885;28;20043;-77
2022/07/10 02:54:51;;;;;;;12.25;2.65;;;12.00;99.90;;;;;;5073148;28;20035;-77
2022/07/10 02:57:17;;;;;;;10.25;2.83;;;12.00;99.90;;;;;;5076787;28;20039;-77
2022/07/10 02:59:43;;;;;;;9.45;2.35;;;11.90;99.90;;;;;;5072611;28;20036;-78
2022/07/10 03:02:08;;;;;;;11.13;2.50;;;12.00;99.90;;;;;;5073158;28;20039;-77
2022/07/10 03:04:34;;;;;;;9.13;2.47;;;12.00;99.90;;;;;;5098519;28;20542;-78
2022/07/10 03:07:00;;;;;;;6.05;1.98;;;12.00;99.90;;;;;;5077381;28;20054;-78
2022/07/10 03:09:26;;;;;;;8.48;2.03;;;11.90;99.90;;;;;;5086590;28;20090;-78
2022/07/10 03:11:52;;;;;;;10.57;2.78;;;11.90;99.90;;;;;;5075880;28;20035;-78
2022/07/10 03:14:18;;;;;;;8.65;2.20;;;11.90;99.90;;;;;;5078764;28;20115;-77
2022/07/10 03:16:44;;;;;;;9.98;2.72;;;11.90;99.90;;;;;;5078688;28;20036;-78
2022/07/10 03:19:10;;;;;;;8.02;2.60;;;11.90;99.90;;;;;;5075964;28;20032;-78
2022/07/10 03:21:35;;;;;;;10.15;2.95;;;11.90;99.90;;;;;;5071781;28;20587;-78
2022/07/10 03:24:01;;;;;;;8.95;2.20;;;11.80;99.90;;;;;;5072618;28;20496;-77
2022/07/10 03:26:29;;;;;;;7.30;2.45;;;11.80;99.90;;;;;;5088241;28;20035;-77
2022/07/10 03:28:55;;;;;;;8.07;2.63;;;11.80;99.90;;;;;;5052905;28;20053;-77
2022/07/10 03:31:22;;;;;;;7.75;2.10;;;11.80;99.90;;;;;;5085542;28;20044;-78
2022/07/10 03:33:48;;;;;;;5.97;2.38;;;11.80;99.90;;;;;;5084954;28;20463;-77
2022/07/10 03:36:14;;;;;;;9.95;2.20;;;11.70;99.90;;;;;;5087106;28;20055;-77
2022/07/10 03:38:46;;;;;;;12.25;2.10;;;11.70;99.90;;;;;;5038752;28;20040;-77
2022/07/10 03:41:13;;;;;;;11.80;2.60;;;11.70;99.90;;;;;;5087442;28;20036;-77
2022/07/10 03:43:39;;;;;;;8.48;1.88;;;11.70;99.90;;;;;;5059352;28;20404;-77
2022/07/10 03:46:04;;;;;;;8.35;2.13;;;11.70;99.90;;;;;;5038214;28;20031;-77
2022/07/10 03:48:30;;;;;;;8.32;2.75;;;11.60;99.90;;;;;;5065158;28;20113;-77
2022/07/10 03:50:56;;;;;;;11.55;2.15;;;11.60;99.90;;;;;;5076736;28;20047;-77
2022/07/10 03:53:21;;;;;;;7.68;2.03;;;11.60;99.90;;;;;;5070815;28;20040;-77
2022/07/10 03:55:47;;;;;;;6.60;2.13;;;11.60;99.90;;;;;;5055720;28;20119;-77
2022/07/10 03:58:13;;;;;;;8.38;2.40;;;11.60;99.90;;;;;;5092416;28;20032;-78
2022/07/10 04:00:40;;;;;;;9.48;2.17;;;11.50;99.90;;;;;;5072193;28;20048;-77
2022/07/10 04:03:06;;;;;;;5.75;2.22;;;11.60;99.90;;;;;;5089221;28;20044;-77
2022/07/10 04:05:33;;;;;;;12.52;2.95;;;11.60;99.90;;;;;;5071719;28;20104;-78
2022/07/10 04:08:00;;;;;;;7.55;2.40;;;11.60;99.90;;;;;;5080138;28;20051;-77
2022/07/10 04:10:28;;;;;;;9.13;2.60;;;11.60;99.90;;;;;;5065625;28;20532;-77
2022/07/10 04:12:54;;;;;;;8.85;2.25;;;11.60;99.90;;;;;;5071327;28;20059;-77
2022/07/10 04:15:21;;;;;;;12.27;2.50;;;11.60;99.90;;;;;;5063026;28;20113;-78
2022/07/10 04:17:48;;;;;;;6.78;1.85;;;11.70;99.90;;;;;;5094867;28;20028;-77
2022/07/10 04:20:15;;;;;;;6.40;2.47;;;11.80;99.90;;;;;;5061065;28;20041;-77
2022/07/10 04:22:40;;;;;;;8.18;2.10;;;11.80;99.90;;;;;;5071406;28;20040;-77
2022/07/10 04:25:08;;;;;;;9.65;2.33;;;11.90;99.90;;;;;;5056598;28;20043;-77
2022/07/10 04:27:33;;;;;;;10.35;2.33;;;12.00;99.90;;;;;;5067078;28;20222;-78
2022/07/10 04:29:59;;;;;;;7.32;2.03;;;12.10;99.90;;;;;;5090680;28;20044;-77
2022/07/10 04:32:25;;;;;;;5.97;2.17;;;12.10;99.90;;;;;;5069814;28;20041;-77
2022/07/10 04:34:51;;;;;;;5.72;1.95;;;12.20;99.90;;;;;;5075325;28;20039;-78
2022/07/10 04:37:16;;;;;;;8.55;2.08;;;12.20;99.90;;;;;;5072333;28;20028;-77
2022/07/10 04:39:43;;;;;;;8.30;2.40;;;12.20;99.90;;;;;;5089750;28;20047;-77
2022/07/10 04:42:09;;;;;;;11.30;2.60;;;12.20;99.90;;;;;;5092276;28;20040;-77
2022/07/10 04:44:38;;;;;;;9.90;2.38;;;12.20;99.90;;;;;;5074404;28;20036;-77
2022/07/10 04:47:05;;;;;;;11.02;3.10;;;12.30;99.90;;;;;;5090827;28;20572;-77
2022/07/10 04:49:32;;;;;;;7.82;2.63;;;12.30;99.90;;;;;;5070283;28;20040;-77
2022/07/10 04:51:58;;;;;;;7.20;1.95;;;12.30;99.90;;;;;;5066245;28;20069;-77
2022/07/10 04:54:24;;;;;;;6.97;2.72;;;12.40;99.90;;;;;;5055959;28;20457;-77
2022/07/10 04:56:50;;;;;;;9.65;2.80;;;12.40;99.90;;;;;;5044747;28;20032;-77
2022/07/10 04:59:16;;;;;;;7.32;1.90;;;12.40;99.90;;;;;;5057717;28;20052;-77
2022/07/10 05:01:42;;;;;;;9.73;1.92;;;12.40;99.90;;;;;;5091546;28;20586;-77
2022/07/10 05:04:08;;;;;;;7.43;2.20;;;12.50;99.90;;;;;;5074635;28;20549;-77
2022/07/10 05:06:34;;;;;;;10.05;2.40;;;12.50;99.90;;;;;;5069327;28;20043;-77
2022/07/10 05:09:00;;;;;;;10.32;2.88;;;12.50;99.90;;;;;;5071442;28;20093;-76
2022/07/10 05:11:26;;;;;;;8.57;2.35;;;12.50;99.90;;;;;;5066399;28;20125;-77
2022/07/10 05:13:52;;;;;;;9.82;2.45;;;12.50;99.90;;;;;;5081616;28;20121;-77
2022/07/10 05:16:19;;;;;;;8.52;2.53;;;12.60;99.90;;;;;;5071490;28;20485;-78
2022/07/10 05:18:45;;;;;;;11.15;2.15;;;12.60;99.90;;;;;;5082679;28;20127;-78
2022/07/10 05:21:11;;;;;;;5.90;2.00;;;12.70;99.90;;;;;;5107396;28;20642;-78
2022/07/10 05:23:38;;;;;;;8.60;2.15;;;12.70;99.90;;;;;;5061293;28;20032;-77
2022/07/10 05:26:04;;;;;;;13.75;2.50;;;12.70;99.90;;;;;;5084968;28;20043;-77
2022/07/10 05:28:30;;;;;;;15.20;2.42;;;12.80;99.90;;;;;;5081946;28;20059;-78
2022/07/10 05:30:56;;;;;;;8.63;2.40;;;12.90;99.90;;;;;;5078238;28;20036;-78
2022/07/10 05:33:22;;;;;;;8.00;1.92;;;12.90;99.90;;;;;;5038957;28;20094;-78
2022/07/10 05:35:48;;;;;;;14.15;2.40;;;13.00;99.90;;;;;;5067012;28;20056;-78
2022/07/10 05:38:13;;;;;;;5.72;2.45;;;13.10;99.90;;;;;;5068482;28;20508;-78
2022/07/10 05:40:40;;;;;;;8.50;2.70;;;13.10;99.90;;;;;;5054273;28;20068;-78
2022/07/10 05:43:05;;;;;;;11.48;3.13;;;13.10;99.90;;;;;;5054191;28;20441;-77
2022/07/10 05:45:31;;;;;;;4.43;2.00;;;13.20;99.90;;;;;;5070585;28;20041;-78
2022/07/10 05:47:57;;;;;;;10.00;2.08;;;13.20;99.90;;;;;;5064101;28;20040;-77
2022/07/10 05:50:23;;;;;;;9.65;2.17;;;13.20;99.90;;;;;;5074295;28;20515;-77
2022/07/10 05:52:48;;;;;;;8.90;2.42;;;13.30;99.90;;;;;;5105784;28;20032;-78
2022/07/10 05:55:15;;;;;;;5.45;2.10;;;13.40;99.90;;;;;;5083843;28;20032;-77
2022/07/10 05:57:41;;;;;;;9.60;2.70;;;13.40;99.90;;;;;;5079271;28;20045;-77
2022/07/10 06:00:08;;;;;;;9.13;2.20;;;13.50;99.90;;;;;;5065777;28;20101;-78
2022/07/10 06:02:34;;;;;;;10.48;2.55;;;13.60;99.90;;;;;;5079657;28;20032;-77
2022/07/10 06:04:59;;;;;;;9.38;2.22;;;13.60;99.90;;;;;;5053078;28;20554;-77
2022/07/10 06:07:26;;;;;;;10.55;2.45;;;13.70;99.90;;;;;;5062207;28;20037;-77
2022/07/10 06:09:52;;;;;;;10.07;2.30;;;13.80;99.90;;;;;;5056680;28;20040;-78
2022/07/10 06:12:18;;;;;;;5.80;2.33;;;13.80;99.90;;;;;;5043954;28;20121;-77
2022/07/10 06:14:44;;;;;;;5.80;2.05;;;13.90;99.90;;;;;;5075655;28;20085;-77
2022/07/10 06:17:09;;;;;;;10.13;2.05;;;13.90;99.90;;;;;;5062567;28;20035;-77
2022/07/10 06:19:35;;;;;;;7.88;2.55;;;13.90;99.90;;;;;;5051179;28;20441;-77
2022/07/10 06:24:45;;;;;;;8.82;2.30;;;14.00;99.90;;;;;;5069738;28;20040;-78
2022/07/10 06:27:11;;;;;;;11.27;2.60;;;14.00;99.90;;;;;;5068864;28;20056;-77
2022/07/10 06:29:37;;;;;;;11.38;3.08;;;14.00;99.90;;;;;;5084344;28;20044;-77
2022/07/10 06:32:04;;;;;;;6.70;2.10;;;14.10;99.90;;;;;;5089578;28;20425;-78
2022/07/10 06:34:29;;;;;;;8.95;2.10;;;14.10;99.90;;;;;;5084697;28;20410;-77
2022/07/10 06:36:55;;;;;;;14.35;2.33;;;14.20;99.90;;;;;;5105004;28;20048;-77
2022/07/10 06:39:21;;;;;;;9.02;3.22;;;14.30;99.90;;;;;;5066048;28;20043;-77
2022/07/10 06:41:46;;;;;;;10.80;2.50;;;14.30;99.90;;;;;;5067635;28;20048;-77
2022/07/10 06:44:12;;;;;;;9.85;2.60;;;14.40;99.90;;;;;;5087022;28;20102;-77
2022/07/10 06:46:38;;;;;;;12.35;2.63;;;14.50;99.90;;;;;;5061262;28;20043;-78
2022/07/10 06:49:04;;;;;;;6.53;1.92;;;14.60;99.90;;;;;;5056229;28;20040;-77
2022/07/10 06:51:30;;;;;;;9.82;2.22;;;14.70;99.90;;;;;;5066391;28;20114;-78
2022/07/10 06:53:57;;;;;;;7.65;2.17;;;14.80;99.90;;;;;;5069516;28;20364;-78
2022/07/10 06:56:23;;;;;;;7.90;2.53;;;14.80;99.90;;;;;;5083652;28;20048;-77
2022/07/10 06:58:48;;;;;;;8.05;2.40;;;14.80;99.90;;;;;;5053069;28;20032;-77
2022/07/10 07:01:14;;;;;;;6.97;2.65;;;14.80;99.90;;;;;;5044578;28;20488;-77
2022/07/10 07:03:40;;;;;;;11.13;2.63;;;14.70;99.90;;;;;;5051935;28;20040;-77
2022/07/10 07:06:06;;;;;;;8.50;2.90;;;14.70;99.90;;;;;;5088276;28;20036;-77
2022/07/10 07:08:32;;;;;;;8.27;2.53;;;14.70;99.90;;;;;;5078424;28;20052;-76
2022/07/10 07:10:58;;;;;;;10.82;2.65;;;14.70;99.90;;;;;;5069749;28;20059;-76
2022/07/10 07:13:23;;;;;;;9.02;2.78;;;14.60;99.90;;;;;;5078178;28;20409;-76
2022/07/10 07:15:58;;;;;;;10.85;2.65;;;14.60;99.90;;;;;;5101678;28;20082;-75
2022/07/10 07:18:32;;;;;;;8.13;2.40;;;14.50;99.90;;;;;;5070231;28;20036;-75
2022/07/10 07:23:43;;;;;;;11.13;2.60;;;14.40;99.90;;;;;;5060164;28;20044;-75
2022/07/10 07:26:08;;;;;;;10.52;2.72;;;14.40;99.90;;;;;;5060058;28;20043;-75
2022/07/10 07:28:34;;;;;;;10.45;3.38;;;14.40;99.90;;;;;;5087927;28;20549;-75
2022/07/10 07:31:00;;;;;;;9.73;2.67;;;14.50;99.90;;;;;;5063100;28;20035;-75
2022/07/10 07:33:25;;;;;;;9.57;2.70;;;14.50;99.90;;;;;;5064835;28;20666;-75
2022/07/10 07:35:51;;;;;;;8.65;2.60;;;14.50;99.90;;;;;;5064512;28;20036;-75
2022/07/10 07:38:17;;;;;;;9.10;2.97;;;14.60;99.90;;;;;;5063563;28;20390;-75
2022/07/10 07:40:43;;;;;;;11.57;2.70;;;14.70;99.90;;;;;;5041367;28;20045;-75
2022/07/10 07:43:09;;;;;;;9.73;2.70;;;14.70;99.90;;;;;;5062614;28;20044;-75
2022/07/10 07:45:34;;;;;;;9.40;2.67;;;14.80;99.90;;;;;;5069069;28;20421;-74
2022/07/10 07:48:01;;;;;;;8.82;2.40;;;14.80;99.90;;;;;;5085834;28;20119;-74
2022/07/10 07:50:37;;;;;;;6.10;2.70;;;14.90;99.90;;;;;;5069708;28;20044;-75
2022/07/10 07:53:04;;;;;;;9.48;2.42;;;15.00;99.90;;;;;;5086130;28;20040;-75
2022/07/10 07:55:31;;;;;;;6.53;2.55;;;15.00;99.90;;;;;;5071116;28;20032;-75
2022/07/10 07:57:57;;;;;;;9.02;2.58;;;15.10;99.90;;;;;;5068875;28;20039;-75
2022/07/10 08:00:24;;;;;;;9.57;2.40;;;15.10;99.90;;;;;;5091412;28;20032;-75
2022/07/10 08:02:51;;;;;;;11.70;3.10;;;15.20;99.90;;;;;;5074085;28;20093;-75
2022/07/10 08:05:18;;;;;;;7.38;2.13;;;15.30;99.90;;;;;;5073887;28;20040;-75
2022/07/10 08:07:47;;;;;;;5.78;2.00;;;15.50;99.90;;;;;;5074293;28;20047;-75
2022/07/10 08:10:16;;;;;;;9.10;2.25;;;15.70;99.90;;;;;;5087515;28;20579;-75
2022/07/10 08:12:45;;;;;;;8.20;2.22;;;15.80;99.90;;;;;;5070831;28;20035;-76
2022/07/10 08:15:12;;;;;;;8.13;2.08;;;15.90;99.90;;;;;;5086279;28;20032;-76
2022/07/10 08:17:38;;;;;;;7.93;2.28;;;16.10;99.90;;;;;;5072142;28;20047;-76
2022/07/10 08:20:05;;;;;;;7.00;2.00;;;16.10;99.90;;;;;;5058627;28;20047;-76
2022/07/10 08:22:31;;;;;;;7.80;2.20;;;16.20;99.90;;;;;;5089886;28;20044;-76
2022/07/10 08:24:57;;;;;;;6.20;1.92;;;16.10;99.90;;;;;;5082907;28;20039;-76
2022/07/10 08:27:23;;;;;;;5.38;1.90;;;16.10;99.90;;;;;;5072933;28;20044;-76
2022/07/10 08:29:49;;;;;;;5.45;2.00;;;16.10;99.90;;;;;;5087202;28;20043;-75
2022/07/10 08:32:15;;;;;;;7.13;1.80;;;15.90;99.90;;;;;;5097974;28;20514;-75
2022/07/10 08:34:41;;;;;;;4.43;2.00;;;15.80;99.90;;;;;;5073318;28;20036;-75
2022/07/10 08:37:07;;;;;;;2.75;1.20;;;15.70;99.90;;;;;;5071634;28;20036;-75
2022/07/10 08:39:33;;;;;;;3.53;1.70;;;15.60;99.90;;;;;;5071802;28;20039;-75
2022/07/10 08:41:59;;;;;;;2.53;1.33;;;15.50;99.90;;;;;;5071448;28;20550;-75
2022/07/10 08:44:25;;;;;;;12.23;1.77;;;15.50;99.90;;;;;;5072552;28;20043;-75
2022/07/10 08:46:51;;;;;;;4.53;1.52;;;15.40;99.90;;;;;;5072205;28;20442;-75
2022/07/10 08:49:19;;;;;;;2.30;1.25;;;15.50;99.90;;;;;;5071301;28;20131;-76
2022/07/10 08:52:04;;;;;;;4.15;1.20;;;15.50;99.90;;;;;;5073980;28;20416;-76
2022/07/10 08:54:32;;;;;;;3.85;1.20;;;15.50;99.90;;;;;;5090079;28;20147;-75
2022/07/10 08:57:02;;;;;;;2.00;1.30;;;15.60;99.90;;;;;;5070502;28;20039;-76
2022/07/10 08:59:29;;;;;;;6.60;1.73;;;15.70;99.90;;;;;;5072976;28;20406;-75
2022/07/10 09:01:55;;;;;;;4.22;2.00;;;15.70;99.90;;;;;;5087518;28;20068;-75
2022/07/10 09:04:23;;;;;;;4.40;1.58;;;15.80;99.90;;;;;;5089572;28;20503;-76
2022/07/10 09:06:51;;;;;;;4.88;1.42;;;15.80;99.90;;;;;;5070444;28;20493;-76
2022/07/10 09:09:16;;;;;;;3.75;1.42;;;15.80;99.90;;;;;;5072485;28;20040;-75
2022/07/10 09:11:42;;;;;;;4.90;1.40;;;15.70;99.90;;;;;;5073207;28;20042;-75
2022/07/10 09:14:11;;;;;;;3.17;1.50;;;15.80;99.90;;;;;;5100629;28;20040;-75
2022/07/10 09:16:39;;;;;;;4.70;1.40;;;15.80;99.90;;;;;;5070574;28;20040;-75
2022/07/10 09:19:22;;;;;;;2.85;1.27;;;15.90;99.90;;;;;;5064139;28;20047;-75
2022/07/10 09:21:53;;;;;;;3.10;1.48;;;15.90;99.90;;;;;;5094846;28;20580;-75
2022/07/10 09:24:19;;;;;;;2.38;1.30;;;15.90;99.90;;;;;;5079756;28;20059;-75
2022/07/10 09:27:03;;;;;;;2.45;0.90;;;15.90;99.90;;;;;;5085992;28;20537;-75
2022/07/10 09:29:46;;;;;;;2.17;1.10;;;15.90;99.90;;;;;;5091414;28;20040;-75
2022/07/10 09:32:12;;;;;;;4.25;1.88;;;15.90;99.90;;;;;;5079278;28;20027;-75
2022/07/10 09:34:49;;;;;;;2.50;1.15;;;15.90;99.90;;;;;;5078016;28;20046;-75
2022/07/10 09:37:28;;;;;;;4.60;1.50;;;15.80;99.90;;;;;;5096904;28;20055;-75
2022/07/10 09:40:06;;;;;;;2.80;1.05;;;15.70;99.90;;;;;;5075180;28;20539;-75
2022/07/10 09:42:33;;;;;;;5.55;1.80;;;15.70;99.90;;;;;;5097898;28;20032;-75
2022/07/10 09:45:12;;;;;;;4.50;1.45;;;15.70;99.90;;;;;;5081188;28;20035;-74
2022/07/10 09:47:38;;;;;;;4.63;1.55;;;15.80;99.90;;;;;;5100864;28;20043;-74
2022/07/10 09:50:18;;;;;;;3.30;1.63;;;15.70;99.90;;;;;;5098093;28;20142;-74
2022/07/10 09:52:46;;;;;;;4.13;1.50;;;15.80;99.90;;;;;;5081165;28;20031;-75
2022/07/10 09:55:14;;;;;;;5.32;1.40;;;15.80;99.90;;;;;;5086552;28;20503;-74
2022/07/10 09:57:43;;;;;;;3.83;1.40;;;15.80;99.90;;;;;;5076781;28;20062;-74
2022/07/10 10:00:11;;;;;;;4.82;1.90;;;15.80;99.90;;;;;;5098890;28;20218;-75
2022/07/10 10:02:39;;;;;;;3.55;1.33;;;16.00;99.90;;;;;;5101991;28;20040;-75
2022/07/10 10:05:05;;;;;;;2.63;1.20;;;16.00;99.90;;;;;;5085144;28;20497;-74
2022/07/10 10:07:35;;;;;;;3.67;1.05;;;16.10;99.90;;;;;;5060941;28;20382;-75
2022/07/10 10:10:03;;;;;;;2.10;1.50;;;16.20;99.90;;;;;;5063936;28;20060;-75
2022/07/10 10:12:55;;;;;;;2.58;1.10;;;16.20;99.90;;;;;;5096913;28;20045;-75
2022/07/10 10:15:22;;;;;;;2.13;1.08;;;16.20;99.90;;;;;;5057862;28;20438;-75
2022/07/10 10:17:50;;;;;;;5.85;1.45;;;16.20;99.90;;;;;;5083920;28;20454;-75
2022/07/10 10:23:03;;;;;;;3.53;1.25;;;16.20;99.90;;;;;;5096054;28;20046;-74
2022/07/10 10:25:32;;;;;;;1.80;1.17;;;16.20;99.90;;;;;;5074514;27;20425;-73
2022/07/10 10:28:01;;;;;;;5.22;1.70;;;16.20;99.90;;;;;;5069162;28;20504;-76
2022/07/10 10:30:28;;;;;;;4.68;1.50;;;16.20;99.90;;;;;;5079116;28;20184;-75
2022/07/10 10:32:54;;;;;;;3.05;1.58;;;16.20;99.90;;;;;;5070874;28;20040;-75
2022/07/10 10:35:49;;;;;;;2.63;1.08;;;16.20;99.90;;;;;;5072046;28;20040;-75
2022/07/10 10:38:17;;;;;;;1.30;1.23;;;16.20;99.90;;;;;;5076693;28;20054;-75
2022/07/10 10:40:43;;;;;;;2.33;1.27;;;16.10;99.90;;;;;;5082748;28;20488;-75
2022/07/10 10:43:23;;;;;;;1.73;1.20;;;16.00;99.90;;;;;;5080183;28;20047;-75
2022/07/10 10:45:50;;;;;;;1.80;1.15;;;16.00;99.90;;;;;;5097733;28;20039;-74
2022/07/10 10:48:17;;;;;;;1.50;1.02;;;16.00;99.90;;;;;;5075313;28;20084;-74
2022/07/10 10:50:53;;;;;;;1.50;1.00;;;16.00;99.90;;;;;;5062324;28;20096;-74
2022/07/10 10:53:31;;;;;;;3.13;1.17;;;16.00;99.90;;;;;;5075230;28;20114;-75
2022/07/10 10:55:59;;;;;;;2.78;1.30;;;16.00;99.90;;;;;;5079626;28;20139;-74
2022/07/10 10:58:26;;;;;;;1.80;1.10;;;16.10;99.90;;;;;;5087536;28;20039;-74
2022/07/10 11:01:01;;;;;;;1.40;1.20;;;16.20;99.90;;;;;;5073921;28;20043;-75
2022/07/10 11:03:27;;;;;;;2.17;1.88;;;16.30;99.90;;;;;;5068920;28;20044;-74
2022/07/10 11:05:53;;;;;;;5.18;3.92;;;16.20;99.90;;;;;;5085220;28;20113;-75
2022/07/10 11:08:58;;;;;;;2.72;1.35;;;16.30;99.90;;;;;;5063484;28;20039;-74
2022/07/10 11:11:32;;;;;;;1.75;1.10;;;16.20;99.90;;;;;;4980323;28;20471;-75
2022/07/10 11:13:59;;;;;;;3.88;1.35;;;16.10;99.90;;;;;;5064015;28;20047;-74
2022/07/10 11:16:25;;;;;;;3.13;1.50;;;16.10;99.90;;;;;;5071790;28;20104;-74
2022/07/10 11:18:55;;;;;;;3.67;1.50;;;16.20;99.90;;;;;;5094809;28;20294;-74
2022/07/10 11:21:37;;;;;;;2.25;1.50;;;16.30;99.90;;;;;;5082970;28;20466;-75
2022/07/10 11:24:32;;;;;;;2.22;1.38;;;16.40;99.90;;;;;;5064951;28;20046;-75
2022/07/10 11:27:25;;;;;;;3.25;1.67;;;16.40;99.90;;;;;;5065847;28;20446;-75
2022/07/10 11:30:00;;;;;;;2.28;1.55;;;16.30;99.90;;;;;;5069525;28;20052;-75
2022/07/10 11:32:28;;;;;;;4.28;2.30;;;16.30;99.90;;;;;;5061107;28;20660;-75
2022/07/10 11:34:54;;;;;;;3.25;2.25;;;16.20;99.90;;;;;;5078751;28;20050;-75
2022/07/10 11:37:20;;;;;;;4.78;1.90;;;16.10;99.90;;;;;;5079545;28;20047;-75
2022/07/10 11:39:46;;;;;;;4.22;2.45;;;16.10;99.90;;;;;;5084111;28;20036;-77
2022/07/10 11:42:11;;;;;;;4.18;2.05;;;16.10;99.90;;;;;;5077127;28;20240;-75
2022/07/10 11:44:37;;;;;;;3.08;2.10;;;16.00;99.90;;;;;;5074074;28;20572;-75
2022/07/10 11:47:05;;;;;;;6.13;2.13;;;16.00;99.90;;;;;;5076081;28;20043;-75
2022/07/10 11:49:30;;;;;;;6.55;2.75;;;16.00;99.90;;;;;;5051560;28;20546;-76
2022/07/10 11:52:03;;;;;;;3.40;2.10;;;15.90;99.90;;;;;;5094975;28;20332;-76
2022/07/10 11:54:28;;;;;;;5.65;2.45;;;15.90;99.90;;;;;;5088708;28;20075;-76
2022/07/10 11:56:54;;;;;;;4.47;2.40;;;16.00;99.90;;;;;;5054216;28;20381;-76
2022/07/10 11:59:25;;;;;;;6.30;2.55;;;16.00;99.90;;;;;;5057995;28;20050;-76
2022/07/10 12:01:53;;;;;;;4.22;2.58;;;16.20;99.90;;;;;;5057426;28;20466;-76
2022/07/10 12:04:25;;;;;;;4.10;2.55;;;16.20;99.90;;;;;;5075575;28;20044;-76
2022/07/10 12:06:53;;;;;;;4.70;2.60;;;16.20;99.90;;;;;;5094209;28;20042;-76
2022/07/10 12:09:20;;;;;;;6.38;2.72;;;16.40;99.90;;;;;;5061559;28;20044;-76
2022/07/10 12:12:03;;;;;;;5.55;2.50;;;16.40;99.90;;;;;;5057259;28;20036;-76
2022/07/10 12:14:28;;;;;;;4.30;2.50;;;16.50;99.90;;;;;;5094942;28;20035;-77
2022/07/10 12:16:56;;;;;;;6.38;2.80;;;16.60;99.90;;;;;;5060225;28;20464;-77
2022/07/10 12:19:34;;;;;;;7.30;2.80;;;16.70;99.90;;;;;;5066562;28;20520;-76
2022/07/10 12:22:01;;;;;;;5.00;2.63;;;16.80;99.90;;;;;;5065176;28;20105;-76
2022/07/10 12:24:27;;;;;;;4.72;2.72;;;16.90;99.90;;;;;;5092294;28;20051;-77
2022/07/10 12:26:55;;;;;;;8.30;2.90;;;16.90;99.90;;;;;;5064472;28;20098;-77
2022/07/10 12:29:29;;;;;;;6.93;2.45;;;16.90;99.90;;;;;;5037246;28;20048;-76
2022/07/10 12:31:58;;;;;;;5.80;2.45;;;16.90;99.90;;;;;;5046468;28;20061;-76
2022/07/10 12:34:42;;;;;;;6.85;3.35;;;16.90;99.90;;;;;;5072965;28;20046;-76
2022/07/10 12:37:09;;;;;;;7.03;4.18;;;16.80;99.90;;;;;;5079540;28;20040;-76
2022/07/10 12:39:40;;;;;;;4.95;2.55;;;16.70;99.90;;;;;;5068255;28;20039;-75
2022/07/10 12:42:07;;;;;;;9.52;4.10;;;16.60;99.90;;;;;;5075499;28;20044;-76
2022/07/10 12:44:40;;;;;;;6.00;2.25;;;16.60;99.90;;;;;;5061599;28;20043;-75
2022/07/10 12:47:14;;;;;;;3.60;2.47;;;16.40;99.90;;;;;;5074622;28;20031;-76
2022/07/10 12:49:52;;;;;;;5.22;2.33;;;16.40;99.90;;;;;;5065381;28;20205;-75
2022/07/10 12:52:29;;;;;;;6.13;2.78;;;16.50;99.90;;;;;;5082754;28;20401;-75
2022/07/10 12:55:10;;;;;;;6.40;3.00;;;16.60;99.90;;;;;;5072329;28;20174;-76
2022/07/10 12:57:57;;;;;;;4.93;2.55;;;16.70;99.90;;;;;;5082241;28;20039;-76
2022/07/10 13:00:25;;;;;;;3.50;2.63;;;16.60;99.90;;;;;;5070563;27;20043;-76